Time;durP1;ratioP1;P1;durP2;ratioP2;P2;SDS_P1;SDS_P2;PMS_P1;PMS_P2;Temp;Humidity;BMP_temperature;BMP_pressure;BME280_temperature;BME280_humidity;BME280_pressure;Samples;Min_cycle;Max_cycle;Signal;HPM_P1;HPM_P2
2023/07/25 00:02:23;;;;;;;12.30;3.88;;;13.90;99.90;;;;;;5138973;27;20051;-39
2023/07/25 00:04:48;;;;;;;10.55;4.05;;;13.90;99.90;;;;;;5139438;27;20348;-39
2023/07/25 00:07:14;;;;;;;10.75;3.60;;;13.80;99.90;;;;;;5138541;27;20053;-39
2023/07/25 00:09:40;;;;;;;10.75;3.75;;;13.70;99.90;;;;;;5108264;27;20066;-39
2023/07/25 00:12:06;;;;;;;13.00;4.38;;;13.60;99.90;;;;;;5099344;27;20464;-39
2023/07/25 00:14:33;;;;;;;8.32;3.83;;;13.60;99.90;;;;;;5116496;27;20051;-39
2023/07/25 00:16:59;;;;;;;9.35;4.28;;;13.50;99.90;;;;;;5117697;27;20047;-39
2023/07/25 00:19:25;;;;;;;9.13;3.85;;;13.40;99.90;;;;;;5118210;27;20050;-39
2023/07/25 00:21:51;;;;;;;9.27;4.10;;;13.40;99.90;;;;;;5099407;27;20591;-39
2023/07/25 00:24:17;;;;;;;10.77;3.85;;;13.30;99.90;;;;;;5112091;27;20039;-39
2023/07/25 00:26:43;;;;;;;14.32;4.78;;;13.20;99.90;;;;;;5138915;27;20098;-39
2023/07/25 00:29:08;;;;;;;14.68;4.20;;;13.20;99.90;;;;;;5138278;27;20046;-39
2023/07/25 00:31:34;;;;;;;6.53;3.42;;;13.10;99.90;;;;;;5139223;27;20046;-39
2023/07/25 00:34:00;;;;;;;7.78;3.92;;;13.10;99.90;;;;;;5137376;27;20058;-39
2023/07/25 00:36:25;;;;;;;9.50;5.13;;;13.10;99.90;;;;;;5139241;27;20045;-39
2023/07/25 00:38:51;;;;;;;10.05;3.97;;;13.10;99.90;;;;;;5139207;27;20121;-39
2023/07/25 00:41:17;;;;;;;10.98;3.95;;;13.10;99.90;;;;;;5138698;27;20768;-39
2023/07/25 00:43:42;;;;;;;12.20;3.72;;;13.20;99.90;;;;;;5108510;27;20076;-39
2023/07/25 00:46:08;;;;;;;13.88;4.47;;;13.20;99.90;;;;;;5119240;27;20034;-39
2023/07/25 00:48:34;;;;;;;7.47;3.90;;;13.20;99.90;;;;;;5138232;27;20038;-39
2023/07/25 00:51:00;;;;;;;19.50;4.88;;;13.30;99.90;;;;;;5138446;27;20065;-39
2023/07/25 00:53:26;;;;;;;9.18;3.88;;;13.40;99.90;;;;;;5119515;27;20440;-39
2023/07/25 00:55:52;;;;;;;11.95;4.30;;;13.40;99.90;;;;;;5139183;27;20455;-39
2023/07/25 00:58:18;;;;;;;12.07;4.35;;;13.50;99.90;;;;;;5083682;27;20044;-39
2023/07/25 01:00:44;;;;;;;15.15;3.83;;;13.50;99.90;;;;;;5108446;27;20046;-39
2023/07/25 01:03:11;;;;;;;10.70;3.95;;;13.50;99.90;;;;;;5115846;27;20043;-39
2023/07/25 01:05:42;;;;;;;16.85;4.20;;;13.60;99.90;;;;;;5117084;27;20054;-39
2023/07/25 01:08:08;;;;;;;10.60;3.45;;;13.50;99.90;;;;;;5113462;27;20047;-39
2023/07/25 01:10:34;;;;;;;8.73;3.00;;;13.50;99.90;;;;;;5100672;27;20091;-39
2023/07/25 01:13:02;;;;;;;12.35;3.63;;;13.60;99.90;;;;;;5118527;27;20114;-40
2023/07/25 01:15:29;;;;;;;11.38;3.35;;;13.60;99.90;;;;;;5126248;27;20047;-39
2023/07/25 01:17:55;;;;;;;10.88;3.75;;;13.70;99.90;;;;;;5116676;27;20055;-39
2023/07/25 01:20:22;;;;;;;11.10;3.42;;;13.60;99.90;;;;;;5117717;27;20039;-39
2023/07/25 01:22:49;;;;;;;12.15;4.07;;;13.70;99.90;;;;;;5116340;27;20095;-39
2023/07/25 01:25:15;;;;;;;11.15;4.25;;;13.70;99.90;;;;;;5108619;27;20055;-39
2023/07/25 01:27:40;;;;;;;10.55;3.78;;;13.70;99.90;;;;;;5117113;27;20074;-39
2023/07/25 01:30:07;;;;;;;10.50;3.33;;;13.70;99.90;;;;;;5110404;27;20508;-39
2023/07/25 01:32:32;;;;;;;8.05;4.43;;;13.70;99.90;;;;;;5136532;27;20042;-39
2023/07/25 01:34:58;;;;;;;8.77;3.67;;;13.70;99.90;;;;;;5136472;27;20858;-39
2023/07/25 01:37:24;;;;;;;10.25;3.75;;;13.70;99.90;;;;;;5138015;27;20038;-39
2023/07/25 01:39:50;;;;;;;8.77;3.40;;;13.70;99.90;;;;;;5137838;27;20380;-39
2023/07/25 01:42:16;;;;;;;8.80;3.50;;;13.70;99.90;;;;;;5136328;27;20597;-39
2023/07/25 01:44:41;;;;;;;11.18;3.30;;;13.70;99.90;;;;;;5114715;27;20136;-39
2023/07/25 01:47:07;;;;;;;11.30;3.70;;;13.70;99.90;;;;;;5096638;27;20055;-40
2023/07/25 01:49:33;;;;;;;8.30;3.40;;;13.70;99.90;;;;;;5116652;27;20054;-39
2023/07/25 01:51:58;;;;;;;10.32;3.75;;;13.70;99.90;;;;;;5116522;27;20066;-39
2023/07/25 01:54:24;;;;;;;11.85;3.53;;;13.80;99.90;;;;;;5116029;27;20055;-39
2023/07/25 01:56:50;;;;;;;8.68;3.33;;;13.80;99.90;;;;;;5116887;27;20055;-39
2023/07/25 01:59:16;;;;;;;12.27;4.00;;;13.80;99.90;;;;;;5116433;27;20115;-39
2023/07/25 02:01:42;;;;;;;11.02;3.40;;;13.90;99.90;;;;;;5104480;27;20131;-39
2023/07/25 02:04:07;;;;;;;9.43;3.40;;;13.90;99.90;;;;;;5104908;27;20047;-39
2023/07/25 02:06:33;;;;;;;9.57;3.67;;;13.90;99.90;;;;;;5114045;27;20432;-39
2023/07/25 02:08:59;;;;;;;8.70;3.33;;;13.90;99.90;;;;;;5086882;28;20044;-39
2023/07/25 02:11:24;;;;;;;8.20;3.42;;;14.00;99.90;;;;;;5132602;27;20103;-39
2023/07/25 02:13:50;;;;;;;12.30;4.22;;;14.00;99.90;;;;;;5135982;27;20050;-39
2023/07/25 02:16:15;;;;;;;8.88;3.80;;;14.00;99.90;;;;;;5118115;27;20107;-40
2023/07/25 02:18:41;;;;;;;9.88;3.70;;;14.00;99.90;;;;;;5116297;27;20793;-39
2023/07/25 02:21:07;;;;;;;8.10;3.83;;;14.00;99.90;;;;;;5115971;27;20043;-39
2023/07/25 02:23:33;;;;;;;8.82;3.85;;;13.90;99.90;;;;;;5109594;27;20040;-39
2023/07/25 02:25:58;;;;;;;9.00;3.65;;;13.90;99.90;;;;;;5113402;27;20047;-39
2023/07/25 02:28:24;;;;;;;8.82;3.25;;;13.90;99.90;;;;;;5097814;27;20111;-39
2023/07/25 02:30:50;;;;;;;11.52;3.75;;;13.90;99.90;;;;;;5115619;27;20066;-39
2023/07/25 02:33:15;;;;;;;11.27;3.90;;;13.80;99.90;;;;;;5114477;27;20325;-39
2023/07/25 02:35:41;;;;;;;6.88;3.22;;;13.80;99.90;;;;;;5115455;27;20125;-39
2023/07/25 02:38:08;;;;;;;10.73;3.65;;;13.80;99.90;;;;;;5115302;27;20131;-39
2023/07/25 02:40:33;;;;;;;9.40;3.50;;;13.80;99.90;;;;;;5114875;27;20103;-39
2023/07/25 02:42:59;;;;;;;9.15;3.28;;;13.70;99.90;;;;;;5076259;28;20047;-39
2023/07/25 02:45:25;;;;;;;10.52;3.53;;;13.70;99.90;;;;;;5130959;27;20043;-39
2023/07/25 02:47:50;;;;;;;10.25;3.78;;;13.70;99.90;;;;;;5135070;27;20521;-39
2023/07/25 02:50:16;;;;;;;11.10;3.35;;;13.70;99.90;;;;;;5097862;28;20154;-39
2023/07/25 02:52:42;;;;;;;9.77;3.60;;;13.70;99.90;;;;;;5113316;28;20054;-39
2023/07/25 02:55:08;;;;;;;13.18;4.50;;;13.70;99.90;;;;;;5113941;27;20035;-39
2023/07/25 02:57:33;;;;;;;10.43;3.28;;;13.70;99.90;;;;;;5097309;28;20130;-39
2023/07/25 02:59:59;;;;;;;7.88;3.55;;;13.70;99.90;;;;;;5115108;27;20044;-39
2023/07/25 03:02:25;;;;;;;9.35;3.10;;;13.60;99.90;;;;;;5114679;28;20545;-39
2023/07/25 03:04:50;;;;;;;13.88;3.72;;;13.60;99.90;;;;;;5097486;28;20349;-39
2023/07/25 03:07:16;;;;;;;11.73;3.65;;;13.60;99.90;;;;;;5115529;27;20039;-39
2023/07/25 03:09:42;;;;;;;8.52;3.65;;;13.50;99.90;;;;;;5105333;27;20404;-39
2023/07/25 03:12:07;;;;;;;8.02;3.33;;;13.50;99.90;;;;;;5135390;27;20042;-39
2023/07/25 03:14:33;;;;;;;13.13;3.50;;;13.50;99.90;;;;;;5132888;27;20039;-39
2023/07/25 03:16:59;;;;;;;9.32;3.65;;;13.50;99.90;;;;;;5114895;27;20046;-39
2023/07/25 03:19:24;;;;;;;7.80;2.83;;;13.40;99.90;;;;;;5115317;27;20571;-39
2023/07/25 03:21:51;;;;;;;12.73;3.15;;;13.40;99.90;;;;;;5096774;28;20356;-39
2023/07/25 03:24:16;;;;;;;11.00;3.15;;;13.30;99.90;;;;;;5108925;27;20415;-39
2023/07/25 03:26:42;;;;;;;12.38;3.33;;;13.30;99.90;;;;;;5135889;27;20168;-39
2023/07/25 03:29:08;;;;;;;13.93;3.25;;;13.30;99.90;;;;;;5135572;27;20077;-39
2023/07/25 03:31:33;;;;;;;12.25;4.28;;;13.20;99.90;;;;;;5135850;27;20046;-39
2023/07/25 03:33:59;;;;;;;12.25;3.45;;;13.20;99.90;;;;;;5134768;27;20055;-39
2023/07/25 03:36:25;;;;;;;7.05;2.58;;;13.10;99.90;;;;;;5136107;27;20122;-39
2023/07/25 03:38:51;;;;;;;7.40;2.92;;;13.10;99.90;;;;;;5131726;27;20324;-39
2023/07/25 03:41:16;;;;;;;11.43;2.88;;;13.10;99.90;;;;;;5114987;28;20400;-39
2023/07/25 03:43:42;;;;;;;9.45;2.83;;;13.10;99.90;;;;;;5112847;27;20047;-39
2023/07/25 03:46:07;;;;;;;15.50;3.65;;;13.10;99.90;;;;;;5096180;28;20380;-39
2023/07/25 03:48:33;;;;;;;9.90;2.78;;;13.10;99.90;;;;;;5130195;27;20056;-39
2023/07/25 03:50:59;;;;;;;9.48;2.88;;;13.10;99.90;;;;;;5135351;27;20559;-39
2023/07/25 03:53:25;;;;;;;14.60;3.63;;;13.00;99.90;;;;;;5134736;27;20043;-39
2023/07/25 03:55:50;;;;;;;8.88;3.58;;;13.00;99.90;;;;;;5100207;27;20487;-39
2023/07/25 03:58:16;;;;;;;12.23;3.15;;;13.00;99.90;;;;;;5138652;27;20046;-39
2023/07/25 04:00:42;;;;;;;10.45;2.95;;;13.00;99.90;;;;;;5133775;27;20070;-39
2023/07/25 04:03:07;;;;;;;8.18;2.63;;;13.00;99.90;;;;;;5132840;27;20048;-39
2023/07/25 04:05:33;;;;;;;10.13;2.92;;;13.10;99.90;;;;;;5137196;27;20034;-39
2023/07/25 04:07:59;;;;;;;9.30;2.80;;;13.10;99.90;;;;;;5132708;27;20046;-39
2023/07/25 04:10:26;;;;;;;10.85;3.00;;;13.20;99.90;;;;;;5117463;27;20829;-39
2023/07/25 04:12:52;;;;;;;13.82;2.75;;;13.20;99.90;;;;;;5137957;27;20386;-39
2023/07/25 04:15:18;;;;;;;14.27;4.45;;;13.30;99.90;;;;;;5109514;27;20058;-39
2023/07/25 04:17:43;;;;;;;10.18;2.78;;;13.40;99.90;;;;;;5117960;27;20047;-39
2023/07/25 04:20:09;;;;;;;11.00;4.10;;;13.50;99.90;;;;;;5118048;27;20421;-40
2023/07/25 04:22:35;;;;;;;11.27;4.03;;;13.50;99.90;;;;;;5117416;27;20050;-39
2023/07/25 04:25:00;;;;;;;8.85;3.47;;;13.60;99.90;;;;;;5119098;27;20038;-39
2023/07/25 04:27:30;;;;;;;8.95;3.17;;;13.60;99.90;;;;;;5122913;27;20122;-39
2023/07/25 04:29:56;;;;;;;10.55;3.17;;;13.70;99.90;;;;;;5118693;27;20031;-39
2023/07/25 04:32:22;;;;;;;9.85;3.03;;;13.80;99.90;;;;;;5117236;27;20373;-39
2023/07/25 04:34:47;;;;;;;14.82;4.20;;;14.10;99.90;;;;;;5118469;27;20389;-39
2023/07/25 04:37:13;;;;;;;10.63;3.42;;;14.50;99.90;;;;;;5117537;27;20131;-39
2023/07/25 04:39:39;;;;;;;11.30;3.35;;;15.20;99.90;;;;;;5117494;27;20096;-39
2023/07/25 04:42:05;;;;;;;6.55;2.42;;;16.00;99.90;;;;;;5116637;27;20135;-40
2023/07/25 04:44:30;;;;;;;8.45;2.40;;;17.00;99.90;;;;;;5122802;27;20130;-40
2023/07/25 04:46:56;;;;;;;9.13;2.42;;;17.70;99.90;;;;;;5138484;27;20042;-40
2023/07/25 04:49:22;;;;;;;9.13;2.22;;;18.00;99.90;;;;;;5138545;27;20189;-40
2023/07/25 04:51:47;;;;;;;7.90;2.28;;;17.90;99.90;;;;;;5119533;27;20092;-40
2023/07/25 04:54:13;;;;;;;6.05;2.28;;;18.00;99.90;;;;;;5121082;27;20043;-40
2023/07/25 04:56:41;;;;;;;7.72;2.63;;;18.20;99.90;;;;;;5134354;27;20038;-40
2023/07/25 04:59:07;;;;;;;13.65;2.67;;;18.50;99.90;;;;;;5138072;27;20585;-40
2023/07/25 05:01:33;;;;;;;11.52;2.92;;;18.80;99.90;;;;;;5137721;27;20038;-40
2023/07/25 05:03:58;;;;;;;8.07;2.88;;;19.10;99.90;;;;;;5136690;27;20047;-40
2023/07/25 05:06:24;;;;;;;9.93;2.10;;;19.60;99.90;;;;;;5120144;27;20266;-40
2023/07/25 05:08:50;;;;;;;8.23;2.42;;;20.30;99.90;;;;;;5118607;27;20043;-40
2023/07/25 05:11:15;;;;;;;6.82;2.08;;;21.10;99.90;;;;;;5094483;27;20047;-40
2023/07/25 05:13:41;;;;;;;8.30;2.47;;;21.40;99.90;;;;;;5116200;27;20409;-41
2023/07/25 05:16:07;;;;;;;9.35;2.40;;;20.70;99.90;;;;;;5116116;27;20043;-41
2023/07/25 05:18:32;;;;;;;6.75;1.80;;;19.90;99.90;;;;;;5117528;27;20130;-40
2023/07/25 05:20:58;;;;;;;9.50;2.40;;;19.10;99.90;;;;;;5117250;27;20062;-40
2023/07/25 05:23:24;;;;;;;8.80;2.10;;;18.50;99.90;;;;;;5112387;27;20040;-40
2023/07/25 05:25:49;;;;;;;6.82;2.53;;;18.40;99.90;;;;;;5113575;27;20047;-40
2023/07/25 05:28:17;;;;;;;9.98;2.13;;;18.30;99.90;;;;;;5118136;27;20047;-40
2023/07/25 05:30:43;;;;;;;8.07;2.17;;;18.30;99.90;;;;;;5117895;27;20434;-40
2023/07/25 05:33:09;;;;;;;9.05;2.25;;;18.50;99.90;;;;;;5116541;27;20055;-40
2023/07/25 05:35:34;;;;;;;9.02;1.92;;;19.10;99.90;;;;;;5117364;27;20122;-40
2023/07/25 05:38:01;;;;;;;11.52;2.00;;;19.90;99.90;;;;;;5098918;27;20047;-41
2023/07/25 05:40:27;;;;;;;9.52;2.30;;;20.60;99.90;;;;;;5116428;27;20473;-41
2023/07/25 05:42:52;;;;;;;6.72;2.10;;;21.20;99.90;;;;;;5094979;27;20039;-41
2023/07/25 05:45:18;;;;;;;6.45;2.15;;;22.30;99.90;;;;;;5131279;27;20038;-41
2023/07/25 05:47:44;;;;;;;6.72;2.13;;;23.20;99.90;;;;;;5137481;27;20526;-41
2023/07/25 05:50:10;;;;;;;6.57;1.88;;;23.90;99.00;;;;;;5136960;27;20047;-41
2023/07/25 05:52:36;;;;;;;7.20;1.83;;;24.80;98.60;;;;;;5136187;27;20399;-41
2023/07/25 05:55:02;;;;;;;6.03;1.90;;;25.20;96.00;;;;;;5137086;27;20489;-40
2023/07/25 05:57:28;;;;;;;7.80;1.85;;;25.70;94.50;;;;;;5137101;27;20155;-41
2023/07/25 05:59:53;;;;;;;6.32;1.88;;;26.40;95.20;;;;;;5137821;27;20088;-42
2023/07/25 06:02:19;;;;;;;7.40;2.08;;;27.00;94.00;;;;;;5135914;27;20482;-41
2023/07/25 06:04:46;;;;;;;5.15;1.38;;;27.10;93.30;;;;;;5136896;27;20182;-42
2023/07/25 06:07:13;;;;;;;8.43;2.20;;;27.00;92.20;;;;;;5125279;27;20397;-42
2023/07/25 06:09:39;;;;;;;6.55;2.05;;;27.20;92.20;;;;;;5101988;27;20497;-41
2023/07/25 06:12:07;;;;;;;6.43;1.63;;;27.40;91.40;;;;;;5113689;27;20043;-42
2023/07/25 06:14:32;;;;;;;5.75;1.85;;;27.30;90.00;;;;;;5115033;27;20555;-41
2023/07/25 06:16:58;;;;;;;7.35;2.05;;;28.00;90.50;;;;;;5114802;27;20050;-43
2023/07/25 06:19:23;;;;;;;4.47;2.00;;;28.50;90.30;;;;;;5115108;27;20137;-43
2023/07/25 06:21:50;;;;;;;5.78;1.33;;;28.90;87.70;;;;;;5114289;27;20077;-41
2023/07/25 06:24:16;;;;;;;6.93;1.98;;;29.00;88.70;;;;;;5088534;27;20377;-41
2023/07/25 06:26:42;;;;;;;5.57;1.48;;;29.30;85.20;;;;;;5097055;27;20104;-41
2023/07/25 06:29:07;;;;;;;4.53;1.40;;;29.90;85.40;;;;;;5116009;27;20039;-42
2023/07/25 06:31:33;;;;;;;3.78;1.50;;;29.80;81.90;;;;;;5116526;27;20389;-41
2023/07/25 06:33:59;;;;;;;4.60;1.50;;;29.30;80.10;;;;;;5114500;27;20043;-42
2023/07/25 06:36:25;;;;;;;6.15;1.73;;;29.10;83.60;;;;;;5116516;27;20191;-41
2023/07/25 06:38:50;;;;;;;3.90;1.27;;;29.10;85.20;;;;;;5098768;27;20049;-42
2023/07/25 06:41:16;;;;;;;5.30;1.38;;;29.30;80.90;;;;;;5136387;27;20114;-42
2023/07/25 06:43:42;;;;;;;6.78;1.63;;;29.60;79.70;;;;;;5122063;27;20117;-42
2023/07/25 06:46:07;;;;;;;5.05;1.60;;;29.50;80.30;;;;;;5115774;27;20429;-42
2023/07/25 06:48:33;;;;;;;4.93;1.40;;;29.50;77.10;;;;;;5115657;27;20442;-41
2023/07/25 06:50:58;;;;;;;5.45;1.73;;;30.00;81.40;;;;;;5115192;27;20580;-41
2023/07/25 06:53:24;;;;;;;5.28;1.48;;;30.20;77.70;;;;;;5113991;27;20447;-41
2023/07/25 06:55:50;;;;;;;4.95;1.40;;;30.30;78.40;;;;;;5115618;27;20035;-41
2023/07/25 06:58:15;;;;;;;5.65;1.52;;;30.30;75.10;;;;;;5096471;28;20043;-41
2023/07/25 07:00:41;;;;;;;6.18;1.38;;;30.30;76.30;;;;;;5116027;27;20051;-42
2023/07/25 07:03:07;;;;;;;4.57;1.40;;;30.30;76.70;;;;;;5096572;28;20039;-41
2023/07/25 07:05:33;;;;;;;5.30;1.70;;;29.90;74.20;;;;;;5115904;28;20431;-42
2023/07/25 07:07:59;;;;;;;7.03;1.45;;;29.30;77.00;;;;;;5093809;28;20088;-41
2023/07/25 07:10:25;;;;;;;5.47;1.38;;;29.20;76.40;;;;;;5095893;27;20440;-41
2023/07/25 07:12:53;;;;;;;7.88;1.90;;;29.40;77.30;;;;;;5134651;27;20157;-42
2023/07/25 07:15:24;;;;;;;6.72;1.40;;;29.50;77.60;;;;;;5125810;27;20064;-41
2023/07/25 07:17:53;;;;;;;2.88;1.30;;;29.10;76.90;;;;;;5115206;27;20081;-41
2023/07/25 07:20:19;;;;;;;3.75;1.30;;;28.80;78.90;;;;;;5115356;27;20047;-41
2023/07/25 07:22:44;;;;;;;6.03;1.60;;;28.10;78.20;;;;;;5113564;27;20458;-42
2023/07/25 07:25:10;;;;;;;4.82;1.17;;;26.80;80.50;;;;;;5106630;27;20143;-40
2023/07/25 07:27:36;;;;;;;5.68;1.50;;;25.60;82.60;;;;;;5115415;27;20050;-41
2023/07/25 07:30:03;;;;;;;4.10;1.33;;;25.00;85.40;;;;;;5116274;27;20043;-41
2023/07/25 07:32:28;;;;;;;3.60;1.27;;;24.30;86.20;;;;;;5116131;27;20042;-42
2023/07/25 07:34:54;;;;;;;6.63;1.63;;;24.00;87.80;;;;;;5095418;27;20054;-43
2023/07/25 07:37:20;;;;;;;5.50;1.60;;;23.90;88.00;;;;;;5139551;27;20295;-42
2023/07/25 07:39:45;;;;;;;8.57;2.00;;;23.80;89.50;;;;;;5139940;27;20091;-40
2023/07/25 07:42:11;;;;;;;3.83;1.45;;;23.90;87.70;;;;;;5137809;27;20054;-40
2023/07/25 07:44:37;;;;;;;5.18;1.27;;;23.80;89.10;;;;;;5130308;27;20457;-42
2023/07/25 07:47:03;;;;;;;5.90;1.88;;;24.00;90.30;;;;;;5100341;27;20553;-41
2023/07/25 07:49:28;;;;;;;4.03;1.33;;;24.10;88.90;;;;;;5130812;27;20532;-41
2023/07/25 07:51:54;;;;;;;4.50;1.50;;;23.90;85.70;;;;;;5120449;27;20051;-40
2023/07/25 07:54:21;;;;;;;3.08;1.05;;;24.10;86.30;;;;;;5139386;27;20125;-41
2023/07/25 07:56:47;;;;;;;6.85;1.38;;;24.00;86.90;;;;;;5138562;27;20078;-41
2023/07/25 07:59:13;;;;;;;3.50;1.13;;;23.90;88.40;;;;;;5127001;27;20134;-42
2023/07/25 08:01:38;;;;;;;3.03;1.20;;;23.90;86.90;;;;;;5117022;27;20039;-41
2023/07/25 08:04:04;;;;;;;4.07;1.30;;;23.50;88.80;;;;;;5099271;27;20058;-40
2023/07/25 08:06:30;;;;;;;5.03;1.02;;;23.60;89.30;;;;;;5118195;27;20102;-41
2023/07/25 08:08:56;;;;;;;4.57;1.40;;;23.60;90.20;;;;;;5107679;27;20505;-41
2023/07/25 08:11:22;;;;;;;5.85;1.77;;;23.70;90.50;;;;;;5134175;27;20077;-40
2023/07/25 08:13:47;;;;;;;2.92;1.13;;;23.80;88.10;;;;;;5138769;27;20465;-41
2023/07/25 08:16:13;;;;;;;6.70;1.33;;;23.30;89.40;;;;;;5121384;27;20497;-41
2023/07/25 08:18:39;;;;;;;4.18;1.30;;;22.80;89.60;;;;;;5118572;27;20059;-42
2023/07/25 08:21:05;;;;;;;3.97;1.23;;;22.50;89.30;;;;;;5118560;27;20381;-41
2023/07/25 08:23:30;;;;;;;3.53;1.08;;;22.70;91.50;;;;;;5111975;27;20127;-40
2023/07/25 08:25:57;;;;;;;5.03;1.50;;;22.50;90.70;;;;;;5116034;27;20054;-41
2023/07/25 08:28:23;;;;;;;5.53;1.45;;;22.60;90.40;;;;;;5139677;27;20091;-40
2023/07/25 08:30:57;;;;;;;5.97;1.40;;;22.30;90.90;;;;;;5120626;27;20052;-41
2023/07/25 08:33:22;;;;;;;3.13;1.27;;;22.20;91.20;;;;;;5138394;27;20042;-41
2023/07/25 08:35:50;;;;;;;4.03;1.13;;;22.50;91.30;;;;;;5114618;27;20409;-41
2023/07/25 08:38:16;;;;;;;4.72;1.30;;;22.90;90.20;;;;;;5117928;27;20042;-41
2023/07/25 08:40:41;;;;;;;2.95;1.25;;;23.00;89.30;;;;;;5117661;27;20046;-41
2023/07/25 08:43:09;;;;;;;6.78;1.63;;;23.00;89.80;;;;;;5094332;28;20263;-44
2023/07/25 08:45:36;;;;;;;3.72;1.25;;;23.10;90.70;;;;;;5136847;27;20496;-41
2023/07/25 08:48:04;;;;;;;7.60;1.20;;;23.20;90.70;;;;;;5119668;27;20118;-40
2023/07/25 08:50:32;;;;;;;2.95;1.20;;;23.00;89.20;;;;;;5111196;27;20222;-41
2023/07/25 08:53:03;;;;;;;3.25;1.10;;;22.70;88.00;;;;;;5136591;27;20068;-41
2023/07/25 08:55:30;;;;;;;5.23;1.40;;;22.40;90.10;;;;;;5137712;27;20042;-41
2023/07/25 08:57:56;;;;;;;4.22;1.20;;;22.50;89.70;;;;;;5137298;27;20050;-41
2023/07/25 09:00:23;;;;;;;2.50;1.30;;;22.60;90.20;;;;;;5137676;27;20307;-41
2023/07/25 09:02:51;;;;;;;8.43;1.30;;;22.80;90.70;;;;;;5136042;27;20034;-41
2023/07/25 09:05:17;;;;;;;5.45;1.10;;;22.80;89.10;;;;;;5118990;27;20485;-41
2023/07/25 09:07:42;;;;;;;4.63;1.33;;;22.90;89.40;;;;;;5137421;27;20047;-40
2023/07/25 09:10:09;;;;;;;4.40;1.77;;;22.90;90.60;;;;;;5092490;27;20384;-41
2023/07/25 09:12:35;;;;;;;4.60;1.50;;;22.70;91.70;;;;;;5136879;27;20493;-41
2023/07/25 09:15:01;;;;;;;5.10;1.52;;;22.20;91.30;;;;;;5111209;27;20047;-40
2023/07/25 09:17:26;;;;;;;3.78;1.40;;;21.80;91.80;;;;;;5116968;27;20039;-41
2023/07/25 09:19:52;;;;;;;4.03;1.50;;;21.80;92.50;;;;;;5117966;27;20092;-41
2023/07/25 09:22:29;;;;;;;4.13;1.48;;;21.70;92.00;;;;;;5116196;27;20039;-41
2023/07/25 09:24:55;;;;;;;4.22;1.52;;;21.90;93.10;;;;;;5090294;27;20059;-41
2023/07/25 09:27:21;;;;;;;7.13;1.33;;;22.10;91.70;;;;;;5116424;27;20608;-41
2023/07/25 09:29:51;;;;;;;4.30;1.60;;;22.30;91.00;;;;;;5117256;27;20454;-40
2023/07/25 09:32:28;;;;;;;2.38;0.90;;;22.40;89.70;;;;;;5115278;27;20050;-41
2023/07/25 09:35:01;;;;;;;5.00;1.20;;;22.60;90.00;;;;;;5117036;27;20485;-41
2023/07/25 09:37:30;;;;;;;3.95;1.13;;;22.60;90.50;;;;;;5116300;27;20086;-41
2023/07/25 09:39:56;;;;;;;3.03;1.35;;;22.50;90.20;;;;;;5117387;27;20134;-41
2023/07/25 09:42:22;;;;;;;3.85;1.15;;;22.20;89.30;;;;;;5115823;27;20050;-40
2023/07/25 09:44:51;;;;;;;3.45;0.98;;;21.90;90.10;;;;;;5125342;27;20051;-41
2023/07/25 09:47:26;;;;;;;1.80;0.88;;;21.70;90.50;;;;;;5137093;27;20039;-41
2023/07/25 09:49:53;;;;;;;4.25;1.00;;;21.70;90.70;;;;;;5134662;27;20054;-41
2023/07/25 09:52:19;;;;;;;4.05;1.13;;;21.60;90.70;;;;;;5123086;27;20445;-41
2023/07/25 09:54:45;;;;;;;5.05;1.23;;;21.70;89.70;;;;;;5135251;27;20405;-40
2023/07/25 09:57:11;;;;;;;2.00;0.90;;;21.70;88.80;;;;;;5135815;27;20149;-40
2023/07/25 09:59:37;;;;;;;3.45;1.15;;;21.80;89.30;;;;;;5117884;27;20051;-40
2023/07/25 10:02:03;;;;;;;4.28;0.85;;;21.90;90.40;;;;;;5116312;27;20047;-41
2023/07/25 10:04:30;;;;;;;2.17;1.00;;;22.20;89.90;;;;;;5117051;27;20571;-40
2023/07/25 10:06:59;;;;;;;4.65;1.27;;;22.30;88.90;;;;;;5136282;27;20042;-41
2023/07/25 10:09:25;;;;;;;3.67;1.13;;;22.60;90.00;;;;;;5108936;27;20926;-40
2023/07/25 10:11:53;;;;;;;5.60;1.10;;;22.50;90.10;;;;;;5128132;27;20047;-40
2023/07/25 10:14:19;;;;;;;3.03;1.30;;;22.40;90.40;;;;;;5114591;27;20035;-40
2023/07/25 10:16:46;;;;;;;3.45;1.50;;;22.10;90.40;;;;;;5115112;27;20070;-41
2023/07/25 10:19:11;;;;;;;2.45;1.10;;;22.00;90.90;;;;;;5115115;27;20526;-41
2023/07/25 10:21:53;;;;;;;6.22;1.30;;;22.20;90.60;;;;;;5115340;27;20069;-41
2023/07/25 10:24:21;;;;;;;5.57;1.40;;;22.40;91.60;;;;;;5111312;27;20038;-41
2023/07/25 10:27:00;;;;;;;3.30;1.13;;;22.60;91.10;;;;;;5136465;27;20117;-41
2023/07/25 10:29:41;;;;;;;4.18;1.05;;;22.60;90.70;;;;;;5137188;27;20070;-41
2023/07/25 10:32:08;;;;;;;3.45;0.90;;;22.30;90.40;;;;;;5118901;27;20181;-41
2023/07/25 10:34:43;;;;;;;3.03;0.98;;;22.50;90.80;;;;;;5116633;27;20181;-41
2023/07/25 10:37:29;;;;;;;4.05;1.25;;;22.60;90.50;;;;;;5128142;27;20231;-42
2023/07/25 10:40:14;;;;;;;5.25;1.08;;;22.50;90.00;;;;;;5109509;27;20062;-40
2023/07/25 10:42:46;;;;;;;7.57;1.95;;;22.40;91.20;;;;;;5096155;27;20042;-41
2023/07/25 10:45:33;;;;;;;3.78;1.10;;;22.30;91.20;;;;;;5126203;27;20445;-41
2023/07/25 10:48:02;;;;;;;3.95;1.45;;;22.30;91.40;;;;;;5115255;27;20046;-40
2023/07/25 10:50:47;;;;;;;6.13;1.13;;;22.00;90.50;;;;;;5115330;27;20539;-41
2023/07/25 10:53:14;;;;;;;4.15;1.38;;;21.90;91.00;;;;;;5113390;27;20497;-40
2023/07/25 10:56:02;;;;;;;6.60;1.48;;;21.60;92.00;;;;;;5115418;27;20039;-40
2023/07/25 10:58:28;;;;;;;5.18;1.30;;;21.40;92.80;;;;;;5115034;27;20043;-40
2023/07/25 11:00:54;;;;;;;6.50;1.92;;;21.30;92.60;;;;;;5115198;27;20057;-41
2023/07/25 11:03:29;;;;;;;5.13;1.83;;;21.10;92.70;;;;;;5113183;27;20150;-40
2023/07/25 11:06:07;;;;;;;6.25;1.60;;;21.00;93.10;;;;;;5115644;27;20050;-40
2023/07/25 11:08:37;;;;;;;6.43;1.63;;;21.10;93.20;;;;;;5112641;27;20091;-43
2023/07/25 11:11:05;;;;;;;6.20;1.30;;;21.00;93.20;;;;;;5114099;27;20035;-40
2023/07/25 11:13:36;;;;;;;3.58;1.25;;;20.90;93.60;;;;;;5100624;27;20138;-40
2023/07/25 11:16:03;;;;;;;2.78;1.17;;;20.90;93.10;;;;;;5118081;27;20818;-41
2023/07/25 11:18:33;;;;;;;4.38;1.30;;;20.90;93.30;;;;;;5119233;27;20103;-40
2023/07/25 11:21:03;;;;;;;5.00;1.33;;;21.00;93.20;;;;;;5119250;27;20043;-41
2023/07/25 11:23:29;;;;;;;3.00;1.63;;;21.10;92.60;;;;;;5094232;28;20063;-40
2023/07/25 11:25:57;;;;;;;6.22;1.50;;;21.20;93.40;;;;;;5130262;27;20351;-40
2023/07/25 11:28:23;;;;;;;3.58;1.42;;;21.10;93.10;;;;;;5101599;27;20422;-40
2023/07/25 11:30:48;;;;;;;8.27;1.80;;;21.10;94.10;;;;;;5130265;27;20050;-41
2023/07/25 11:33:14;;;;;;;7.65;1.73;;;21.10;94.30;;;;;;5129012;27;20047;-41
2023/07/25 11:35:40;;;;;;;7.00;1.30;;;21.10;94.40;;;;;;5140344;27;20034;-40
2023/07/25 11:38:05;;;;;;;6.22;1.67;;;20.90;93.80;;;;;;5140165;27;20130;-42
2023/07/25 11:40:31;;;;;;;5.93;1.50;;;20.90;94.30;;;;;;5140559;27;20050;-40
2023/07/25 11:42:57;;;;;;;4.28;1.70;;;21.00;94.00;;;;;;5099238;27;20421;-41
2023/07/25 11:45:23;;;;;;;4.82;1.30;;;21.10;94.30;;;;;;5116364;27;20119;-40
2023/07/25 11:47:51;;;;;;;8.00;2.00;;;21.10;94.70;;;;;;5119214;27;20075;-40
2023/07/25 11:50:18;;;;;;;4.25;1.13;;;21.20;94.80;;;;;;5118200;27;20043;-40
2023/07/25 11:52:45;;;;;;;3.05;1.25;;;21.40;94.10;;;;;;5118176;27;20054;-40
2023/07/25 11:55:12;;;;;;;6.05;1.30;;;21.50;93.60;;;;;;5117826;27;20503;-40
2023/07/25 11:57:41;;;;;;;4.50;1.33;;;21.80;93.60;;;;;;5118770;27;20553;-40
2023/07/25 12:00:11;;;;;;;3.97;1.55;;;21.90;92.90;;;;;;5117713;27;20043;-41
2023/07/25 12:02:38;;;;;;;3.38;0.80;;;21.70;92.40;;;;;;5116950;27;20047;-40
2023/07/25 12:05:04;;;;;;;2.95;1.13;;;21.50;94.00;;;;;;5099263;27;20320;-41
2023/07/25 12:07:49;;;;;;;3.00;0.80;;;21.20;95.90;;;;;;5118031;27;20100;-40
2023/07/25 12:10:27;;;;;;;6.13;1.30;;;20.70;98.00;;;;;;5105907;27;20051;-40
2023/07/25 12:12:55;;;;;;;2.60;1.00;;;20.30;99.90;;;;;;5117194;27;20043;-40
2023/07/25 12:15:21;;;;;;;4.55;1.52;;;19.80;99.90;;;;;;5117314;27;20079;-40
2023/07/25 12:17:47;;;;;;;3.25;1.25;;;19.60;99.90;;;;;;5117697;27;20079;-40
2023/07/25 12:20:14;;;;;;;2.40;1.00;;;19.50;99.90;;;;;;5099732;27;20039;-39
2023/07/25 12:22:39;;;;;;;2.78;0.90;;;19.30;99.90;;;;;;5117131;27;20050;-39
2023/07/25 12:25:06;;;;;;;3.58;1.40;;;19.30;99.90;;;;;;5109435;27;20051;-40
2023/07/25 12:27:32;;;;;;;3.72;1.30;;;19.30;99.90;;;;;;5118835;27;20051;-39
2023/07/25 12:29:58;;;;;;;6.07;1.88;;;19.20;99.90;;;;;;5119001;27;20129;-40
2023/07/25 12:32:24;;;;;;;4.93;1.50;;;19.10;99.90;;;;;;5117517;27;20086;-39
2023/07/25 12:34:50;;;;;;;3.33;1.42;;;19.10;99.90;;;;;;5081565;28;20038;-40
2023/07/25 12:37:17;;;;;;;6.50;1.58;;;19.20;99.90;;;;;;5133652;27;20364;-39
2023/07/25 12:39:44;;;;;;;4.75;1.40;;;19.20;99.90;;;;;;5138612;27;20034;-39
2023/07/25 12:42:10;;;;;;;3.47;1.40;;;19.10;99.90;;;;;;5137361;27;20352;-39
2023/07/25 12:44:36;;;;;;;2.78;1.30;;;19.30;99.90;;;;;;5116163;27;20086;-40